sensor_id;sensor_type;location;lat;lon;timestamp;pressure;altitude;pressure_sealevel;temperature;humidity
62978;BME280;49073;42.352;23.808;2022-07-23T00:01:18;95008.88;;;19.23;60.18
62978;BME280;49073;42.352;23.808;2022-07-23T00:04:18;95009.97;;;19.29;60.18
62978;BME280;49073;42.352;23.808;2022-07-23T00:07:19;95009.78;;;19.09;60.43
62978;BME280;49073;42.352;23.808;2022-07-23T00:10:19;95009.00;;;19.08;60.30
62978;BME280;49073;42.352;23.808;2022-07-23T00:13:20;95015.81;;;18.78;61.41
62978;BME280;49073;42.352;23.808;2022-07-23T00:16:20;95014.09;;;18.50;62.52
62978;BME280;49073;42.352;23.808;2022-07-23T00:19:21;95007.47;;;18.61;62.29
62978;BME280;49073;42.352;23.808;2022-07-23T00:22:22;95008.94;;;18.66;62.15
62978;BME280;49073;42.352;23.808;2022-07-23T00:25:23;95012.75;;;18.72;61.97
62978;BME280;49073;42.352;23.808;2022-07-23T00:28:24;95008.56;;;18.68;61.97
62978;BME280;49073;42.352;23.808;2022-07-23T00:31:24;95002.78;;;18.66;61.90
62978;BME280;49073;42.352;23.808;2022-07-23T00:34:25;95000.59;;;18.46;63.08
62978;BME280;49073;42.352;23.808;2022-07-23T00:37:25;94998.63;;;18.54;63.40
62978;BME280;49073;42.352;23.808;2022-07-23T00:40:27;95003.22;;;18.60;62.67
62978;BME280;49073;42.352;23.808;2022-07-23T00:43:28;95008.94;;;18.66;62.14
62978;BME280;49073;42.352;23.808;2022-07-23T00:46:28;95003.13;;;18.71;61.74
62978;BME280;49073;42.352;23.808;2022-07-23T00:49:29;94999.44;;;18.47;62.34
62978;BME280;49073;42.352;23.808;2022-07-23T00:52:31;95004.09;;;18.46;63.27
62978;BME280;49073;42.352;23.808;2022-07-23T00:55:32;95000.59;;;18.50;62.56
62978;BME280;49073;42.352;23.808;2022-07-23T00:58:34;94997.47;;;18.51;62.26
62978;BME280;49073;42.352;23.808;2022-07-23T01:01:35;94990.69;;;18.32;62.62
62978;BME280;49073;42.352;23.808;2022-07-23T01:04:36;94995.47;;;17.99;64.26
62978;BME280;49073;42.352;23.808;2022-07-23T01:07:37;94993.47;;;18.17;63.63
62978;BME280;49073;42.352;23.808;2022-07-23T01:10:37;95001.44;;;18.36;62.64
62978;BME280;49073;42.352;23.808;2022-07-23T01:13:42;94996.56;;;18.12;63.28
62978;BME280;49073;42.352;23.808;2022-07-23T01:16:45;94995.56;;;17.84;64.54
62978;BME280;49073;42.352;23.808;2022-07-23T01:19:46;94990.97;;;17.70;65.24
62978;BME280;49073;42.352;23.808;2022-07-23T01:22:46;94990.25;;;17.59;65.83
62978;BME280;49073;42.352;23.808;2022-07-23T01:25:49;94986.69;;;17.87;64.84
62978;BME280;49073;42.352;23.808;2022-07-23T01:28:49;94983.50;;;18.07;64.00
62978;BME280;49073;42.352;23.808;2022-07-23T01:31:50;94986.22;;;18.07;63.65
62978;BME280;49073;42.352;23.808;2022-07-23T01:34:50;94985.44;;;18.07;63.39
62978;BME280;49073;42.352;23.808;2022-07-23T01:37:51;94980.88;;;17.93;64.10
62978;BME280;49073;42.352;23.808;2022-07-23T01:40:51;94974.38;;;17.83;64.41
62978;BME280;49073;42.352;23.808;2022-07-23T01:43:52;94980.13;;;17.85;64.33
62978;BME280;49073;42.352;23.808;2022-07-23T01:46:53;94983.97;;;17.87;63.97
62978;BME280;49073;42.352;23.808;2022-07-23T01:49:53;94978.97;;;17.89;63.65
62978;BME280;49073;42.352;23.808;2022-07-23T01:52:54;94981.66;;;17.86;64.23
62978;BME280;49073;42.352;23.808;2022-07-23T01:55:54;94984.72;;;17.88;63.65
62978;BME280;49073;42.352;23.808;2022-07-23T01:58:54;94973.69;;;17.68;64.30
62978;BME280;49073;42.352;23.808;2022-07-23T02:01:55;94975.63;;;17.60;64.71
62978;BME280;49073;42.352;23.808;2022-07-23T02:04:55;94983.69;;;17.71;64.41
62978;BME280;49073;42.352;23.808;2022-07-23T02:07:56;94988.25;;;17.78;64.26
62978;BME280;49073;42.352;23.808;2022-07-23T02:10:56;94987.88;;;17.79;63.96
62978;BME280;49073;42.352;23.808;2022-07-23T02:13:57;94987.91;;;17.72;64.27
62978;BME280;49073;42.352;23.808;2022-07-23T02:16:57;94988.63;;;17.80;63.84
62978;BME280;49073;42.352;23.808;2022-07-23T02:19:58;94992.19;;;17.62;64.24
62978;BME280;49073;42.352;23.808;2022-07-23T02:22:58;94987.16;;;17.64;64.52
62978;BME280;49073;42.352;23.808;2022-07-23T02:25:59;94985.59;;;17.67;64.49
62978;BME280;49073;42.352;23.808;2022-07-23T02:29:01;94974.81;;;17.67;64.38
62978;BME280;49073;42.352;23.808;2022-07-23T02:32:02;94984.06;;;17.66;64.15
62978;BME280;49073;42.352;23.808;2022-07-23T02:35:03;94982.16;;;17.66;63.98
62978;BME280;49073;42.352;23.808;2022-07-23T02:38:04;94985.63;;;17.59;64.28
62978;BME280;49073;42.352;23.808;2022-07-23T02:41:05;94986.84;;;17.48;65.05
62978;BME280;49073;42.352;23.808;2022-07-23T02:44:06;94985.59;;;17.70;64.11
62978;BME280;49073;42.352;23.808;2022-07-23T02:47:07;94990.25;;;17.59;64.33
62978;BME280;49073;42.352;23.808;2022-07-23T02:50:07;94994.13;;;17.58;64.26
62978;BME280;49073;42.352;23.808;2022-07-23T02:53:08;95007.16;;;17.67;63.33
62978;BME280;49073;42.352;23.808;2022-07-23T02:56:09;94996.06;;;17.54;63.55
62978;BME280;49073;42.352;23.808;2022-07-23T02:59:09;94993.72;;;17.63;63.79
62978;BME280;49073;42.352;23.808;2022-07-23T03:02:10;95000.34;;;17.37;64.01
62978;BME280;49073;42.352;23.808;2022-07-23T03:05:11;94997.31;;;17.06;65.04
62978;BME280;49073;42.352;23.808;2022-07-23T03:08:14;94999.63;;;16.82;66.17
62978;BME280;49073;42.352;23.808;2022-07-23T03:11:15;95005.00;;;16.64;67.21
62978;BME280;49073;42.352;23.808;2022-07-23T03:14:16;95004.63;;;16.91;66.92
62978;BME280;49073;42.352;23.808;2022-07-23T03:17:16;95011.56;;;17.10;66.02
62978;BME280;49073;42.352;23.808;2022-07-23T03:20:17;95013.81;;;17.26;65.20
62978;BME280;49073;42.352;23.808;2022-07-23T03:23:17;95021.16;;;17.04;65.91
62978;BME280;49073;42.352;23.808;2022-07-23T03:26:18;95017.69;;;17.21;65.24
62978;BME280;49073;42.352;23.808;2022-07-23T03:29:19;95017.69;;;17.28;65.43
62978;BME280;49073;42.352;23.808;2022-07-23T03:32:20;95018.06;;;17.27;65.51
62978;BME280;49073;42.352;23.808;2022-07-23T03:35:22;95017.28;;;17.34;65.18
62978;BME280;49073;42.352;23.808;2022-07-23T03:38:23;95019.56;;;17.39;65.07
62978;BME280;49073;42.352;23.808;2022-07-23T03:41:24;95018.41;;;17.36;65.38
62978;BME280;49073;42.352;23.808;2022-07-23T03:44:24;95017.28;;;17.26;65.86
62978;BME280;49073;42.352;23.808;2022-07-23T03:47:25;95015.38;;;17.30;66.15
62978;BME280;49073;42.352;23.808;2022-07-23T03:50:25;95016.88;;;17.39;65.94
62978;BME280;49073;42.352;23.808;2022-07-23T03:53:26;95018.34;;;17.65;65.30
62978;BME280;49073;42.352;23.808;2022-07-23T03:56:26;95016.44;;;17.58;65.91
62978;BME280;49073;42.352;23.808;2022-07-23T03:59:27;95017.97;;;17.59;66.01
62978;BME280;49073;42.352;23.808;2022-07-23T04:02:28;95007.19;;;17.59;66.13
62978;BME280;49073;42.352;23.808;2022-07-23T04:05:29;95015.22;;;17.78;66.10
62978;BME280;49073;42.352;23.808;2022-07-23T04:08:29;95022.94;;;17.72;66.75
62978;BME280;49073;42.352;23.808;2022-07-23T04:11:30;95019.50;;;17.68;67.95
62978;BME280;49073;42.352;23.808;2022-07-23T04:14:30;95021.03;;;17.69;67.24
62978;BME280;49073;42.352;23.808;2022-07-23T04:17:31;95020.59;;;17.81;66.19
62978;BME280;49073;42.352;23.808;2022-07-23T04:20:31;95018.63;;;17.93;65.54
62978;BME280;49073;42.352;23.808;2022-07-23T04:23:31;95027.41;;;18.11;65.25
62978;BME280;49073;42.352;23.808;2022-07-23T04:26:33;95024.66;;;18.22;65.75
62978;BME280;49073;42.352;23.808;2022-07-23T04:29:34;95023.06;;;18.32;65.80
62978;BME280;49073;42.352;23.808;2022-07-23T04:32:34;95020.31;;;18.39;66.13
62978;BME280;49073;42.352;23.808;2022-07-23T04:35:35;95021.50;;;18.38;66.43
62978;BME280;49073;42.352;23.808;2022-07-23T04:38:37;95022.66;;;18.37;66.25
62978;BME280;49073;42.352;23.808;2022-07-23T04:41:37;95017.25;;;18.37;66.16
62978;BME280;49073;42.352;23.808;2022-07-23T04:44:37;95011.81;;;18.41;66.07
62978;BME280;49073;42.352;23.808;2022-07-23T04:47:38;95013.69;;;18.51;65.87
62978;BME280;49073;42.352;23.808;2022-07-23T04:50:38;95018.25;;;18.61;65.91
62978;BME280;49073;42.352;23.808;2022-07-23T04:53:40;95014.03;;;18.60;65.86
62978;BME280;49073;42.352;23.808;2022-07-23T04:56:41;95023.59;;;18.69;65.35
62978;BME280;49073;42.352;23.808;2022-07-23T04:59:41;95020.34;;;18.85;64.80
62978;BME280;49073;42.352;23.808;2022-07-23T05:02:43;95016.06;;;18.98;63.36
62978;BME280;49073;42.352;23.808;2022-07-23T05:05:44;95017.84;;;19.12;62.55
62978;BME280;49073;42.352;23.808;2022-07-23T05:08:44;95017.78;;;19.19;62.63
62978;BME280;49073;42.352;23.808;2022-07-23T05:11:45;95018.59;;;19.16;63.09
62978;BME280;49073;42.352;23.808;2022-07-23T05:14:45;95019.28;;;19.24;62.62
62978;BME280;49073;42.352;23.808;2022-07-23T05:17:46;95016.06;;;19.37;62.95
62978;BME280;49073;42.352;23.808;2022-07-23T05:20:47;95011.34;;;19.48;61.63
62978;BME280;49073;42.352;23.808;2022-07-23T05:23:47;95009.28;;;19.59;60.59
62978;BME280;49073;42.352;23.808;2022-07-23T05:26:48;95018.47;;;19.66;60.71
62978;BME280;49073;42.352;23.808;2022-07-23T05:29:48;95017.94;;;19.78;60.16
62978;BME280;49073;42.352;23.808;2022-07-23T05:32:49;95023.09;;;20.00;59.68
62978;BME280;49073;42.352;23.808;2022-07-23T05:35:50;95022.97;;;20.11;59.32
62978;BME280;49073;42.352;23.808;2022-07-23T05:38:50;95013.66;;;20.15;59.90
62978;BME280;49073;42.352;23.808;2022-07-23T05:41:50;95016.34;;;20.15;60.37
62978;BME280;49073;42.352;23.808;2022-07-23T05:44:51;95018.50;;;20.28;60.61
62978;BME280;49073;42.352;23.808;2022-07-23T05:47:51;95023.75;;;20.39;60.10
62978;BME280;49073;42.352;23.808;2022-07-23T05:50:52;95018.84;;;20.57;58.27
62978;BME280;49073;42.352;23.808;2022-07-23T05:53:53;95016.06;;;20.61;58.21
62978;BME280;49073;42.352;23.808;2022-07-23T05:56:54;95026.47;;;20.66;58.28
62978;BME280;49073;42.352;23.808;2022-07-23T05:59:54;95025.91;;;20.78;58.12
62978;BME280;49073;42.352;23.808;2022-07-23T06:02:55;95025.66;;;20.93;57.93
62978;BME280;49073;42.352;23.808;2022-07-23T06:05:56;95025.56;;;21.00;56.75
62978;BME280;49073;42.352;23.808;2022-07-23T06:08:57;95028.44;;;21.13;57.10
62978;BME280;49073;42.352;23.808;2022-07-23T06:11:57;95028.97;;;21.28;57.24
62978;BME280;49073;42.352;23.808;2022-07-23T06:14:58;95017.50;;;21.41;54.86
62978;BME280;49073;42.352;23.808;2022-07-23T06:17:58;95023.91;;;21.50;56.32
62978;BME280;49073;42.352;23.808;2022-07-23T06:20:59;95020.22;;;21.61;55.99
62978;BME280;49073;42.352;23.808;2022-07-23T06:24:00;95024.41;;;21.65;56.53
62978;BME280;49073;42.352;23.808;2022-07-23T06:27:00;95016.44;;;21.78;57.51
62978;BME280;49073;42.352;23.808;2022-07-23T06:30:00;95012.19;;;21.98;57.37
62978;BME280;49073;42.352;23.808;2022-07-23T06:33:01;95011.13;;;22.12;55.71
62978;BME280;49073;42.352;23.808;2022-07-23T06:36:02;95019.34;;;22.24;56.50
62978;BME280;49073;42.352;23.808;2022-07-23T06:39:02;95009.00;;;22.36;56.63
62978;BME280;49073;42.352;23.808;2022-07-23T06:42:03;95005.34;;;22.46;55.45
62978;BME280;49073;42.352;23.808;2022-07-23T06:45:04;95002.63;;;22.63;54.71
62978;BME280;49073;42.352;23.808;2022-07-23T06:48:05;95007.22;;;22.83;54.49
62978;BME280;49073;42.352;23.808;2022-07-23T06:51:06;95017.50;;;22.91;55.03
62978;BME280;49073;42.352;23.808;2022-07-23T06:54:06;95009.50;;;23.01;54.75
62978;BME280;49073;42.352;23.808;2022-07-23T06:57:07;95009.22;;;23.12;54.74
62978;BME280;49073;42.352;23.808;2022-07-23T07:00:07;95000.78;;;23.22;53.61
62978;BME280;49073;42.352;23.808;2022-07-23T07:03:08;95006.22;;;23.39;54.14
62978;BME280;49073;42.352;23.808;2022-07-23T07:06:09;95001.34;;;23.47;54.56
62978;BME280;49073;42.352;23.808;2022-07-23T07:09:09;95002.25;;;23.57;54.20
62978;BME280;49073;42.352;23.808;2022-07-23T07:12:10;95008.06;;;23.72;54.93
62978;BME280;49073;42.352;23.808;2022-07-23T07:15:12;95001.28;;;23.93;55.37
62978;BME280;49073;42.352;23.808;2022-07-23T07:18:12;95006.00;;;24.05;53.48
62978;BME280;49073;42.352;23.808;2022-07-23T07:21:13;94999.34;;;24.06;53.42
62978;BME280;49073;42.352;23.808;2022-07-23T07:24:13;94995.00;;;24.22;53.81
62978;BME280;49073;42.352;23.808;2022-07-23T07:27:14;94990.97;;;24.39;52.29
62978;BME280;49073;42.352;23.808;2022-07-23T07:30:14;94993.13;;;24.58;53.26
62978;BME280;49073;42.352;23.808;2022-07-23T07:33:16;94986.59;;;24.68;52.38
62978;BME280;49073;42.352;23.808;2022-07-23T07:36:16;94998.47;;;24.74;53.66
62978;BME280;49073;42.352;23.808;2022-07-23T07:39:17;94986.03;;;24.99;51.12
62978;BME280;49073;42.352;23.808;2022-07-23T07:42:20;94985.22;;;25.11;51.21
62978;BME280;49073;42.352;23.808;2022-07-23T07:45:21;94983.44;;;25.18;51.30
62978;BME280;49073;42.352;23.808;2022-07-23T07:48:22;94975.75;;;25.38;50.86
62978;BME280;49073;42.352;23.808;2022-07-23T07:51:22;94972.44;;;25.44;51.37
62978;BME280;49073;42.352;23.808;2022-07-23T07:54:22;94976.00;;;25.76;50.11
62978;BME280;49073;42.352;23.808;2022-07-23T07:57:23;94980.81;;;25.94;49.90
62978;BME280;49073;42.352;23.808;2022-07-23T08:00:23;94972.84;;;26.09;49.73
62978;BME280;49073;42.352;23.808;2022-07-23T08:03:24;94966.56;;;26.21;48.13
62978;BME280;49073;42.352;23.808;2022-07-23T08:06:24;94968.38;;;26.24;48.64
62978;BME280;49073;42.352;23.808;2022-07-23T08:09:25;94965.38;;;26.32;48.86
62978;BME280;49073;42.352;23.808;2022-07-23T08:12:26;94963.91;;;26.49;47.13
62978;BME280;49073;42.352;23.808;2022-07-23T08:15:28;94961.06;;;26.62;45.65
62978;BME280;49073;42.352;23.808;2022-07-23T08:18:29;94969.19;;;26.84;45.26
62978;BME280;49073;42.352;23.808;2022-07-23T08:21:29;94956.72;;;26.93;45.64
62978;BME280;49073;42.352;23.808;2022-07-23T08:24:30;94953.56;;;27.13;46.16
62978;BME280;49073;42.352;23.808;2022-07-23T08:27:30;94954.31;;;27.32;44.61
62978;BME280;49073;42.352;23.808;2022-07-23T08:30:32;94951.13;;;27.43;44.87
62978;BME280;49073;42.352;23.808;2022-07-23T08:33:32;94949.00;;;27.47;42.65
62978;BME280;49073;42.352;23.808;2022-07-23T08:36:33;94952.44;;;27.85;41.72
62978;BME280;49073;42.352;23.808;2022-07-23T08:39:33;94958.16;;;28.06;36.62
62978;BME280;49073;42.352;23.808;2022-07-23T08:42:35;94954.97;;;28.07;38.04
62978;BME280;49073;42.352;23.808;2022-07-23T08:45:41;94961.13;;;28.36;36.46
62978;BME280;49073;42.352;23.808;2022-07-23T08:48:43;94955.25;;;28.52;36.62
62978;BME280;49073;42.352;23.808;2022-07-23T08:51:43;94948.81;;;28.89;31.88
62978;BME280;49073;42.352;23.808;2022-07-23T08:54:44;94953.13;;;28.81;34.25
62978;BME280;49073;42.352;23.808;2022-07-23T08:57:48;94947.28;;;28.88;35.42
62978;BME280;49073;42.352;23.808;2022-07-23T09:00:49;94953.13;;;29.05;35.28
62978;BME280;49073;42.352;23.808;2022-07-23T09:03:49;94950.47;;;29.50;32.30
62978;BME280;49073;42.352;23.808;2022-07-23T09:06:50;94952.00;;;29.66;33.42
62978;BME280;49073;42.352;23.808;2022-07-23T09:10:05;94947.63;;;29.44;32.93
62978;BME280;49073;42.352;23.808;2022-07-23T09:13:08;94955.41;;;29.61;31.60
62978;BME280;49073;42.352;23.808;2022-07-23T09:16:28;94948.19;;;30.24;31.07
62978;BME280;49073;42.352;23.808;2022-07-23T09:19:29;94939.91;;;30.39;32.98
62978;BME280;49073;42.352;23.808;2022-07-23T09:22:30;94942.31;;;30.67;31.29
62978;BME280;49073;42.352;23.808;2022-07-23T09:25:30;94937.28;;;30.86;28.43
62978;BME280;49073;42.352;23.808;2022-07-23T09:28:31;94935.16;;;30.96;28.31
62978;BME280;49073;42.352;23.808;2022-07-23T09:31:46;94934.19;;;31.19;27.96
62978;BME280;49073;42.352;23.808;2022-07-23T09:34:49;94935.16;;;31.37;27.02
62978;BME280;49073;42.352;23.808;2022-07-23T09:38:02;94933.09;;;31.58;26.93
62978;BME280;49073;42.352;23.808;2022-07-23T09:44:11;94942.19;;;31.91;26.04
62978;BME280;49073;42.352;23.808;2022-07-23T09:47:12;94946.97;;;31.96;25.77
62978;BME280;49073;42.352;23.808;2022-07-23T09:50:13;94942.19;;;31.91;25.41
62978;BME280;49073;42.352;23.808;2022-07-23T09:53:24;94942.03;;;32.06;27.78
62978;BME280;49073;42.352;23.808;2022-07-23T09:56:27;94937.53;;;32.09;24.60
62978;BME280;49073;42.352;23.808;2022-07-23T09:59:31;94939.66;;;32.25;25.79
62978;BME280;49073;42.352;23.808;2022-07-23T10:02:33;94932.09;;;32.20;24.88
62978;BME280;49073;42.352;23.808;2022-07-23T10:05:35;94933.81;;;32.49;25.29
62978;BME280;49073;42.352;23.808;2022-07-23T10:08:40;94929.59;;;32.60;24.53
62978;BME280;49073;42.352;23.808;2022-07-23T10:11:41;94920.06;;;32.61;24.77
62978;BME280;49073;42.352;23.808;2022-07-23T10:14:43;94923.81;;;32.58;24.30
62978;BME280;49073;42.352;23.808;2022-07-23T10:17:44;94916.00;;;32.50;25.93
62978;BME280;49073;42.352;23.808;2022-07-23T10:20:47;94915.28;;;32.56;25.80
62978;BME280;49073;42.352;23.808;2022-07-23T10:24:12;94905.16;;;32.90;23.27
62978;BME280;49073;42.352;23.808;2022-07-23T10:27:31;94913.22;;;32.94;23.87
62978;BME280;49073;42.352;23.808;2022-07-23T10:36:59;94909.28;;;33.18;21.10
62978;BME280;49073;42.352;23.808;2022-07-23T10:40:17;94897.75;;;33.19;20.68
62978;BME280;49073;42.352;23.808;2022-07-23T10:43:18;94900.75;;;33.27;21.20
62978;BME280;49073;42.352;23.808;2022-07-23T10:46:24;94893.00;;;33.37;21.87
62978;BME280;49073;42.352;23.808;2022-07-23T10:49:48;94888.25;;;33.55;22.13
62978;BME280;49073;42.352;23.808;2022-07-23T10:56:13;94883.25;;;33.70;21.45
62978;BME280;49073;42.352;23.808;2022-07-23T10:59:14;94886.03;;;33.82;21.13
62978;BME280;49073;42.352;23.808;2022-07-23T11:02:21;94878.47;;;33.88;20.70
62978;BME280;49073;42.352;23.808;2022-07-23T11:05:24;94884.25;;;33.84;21.26
62978;BME280;49073;42.352;23.808;2022-07-23T11:08:25;94878.97;;;33.92;19.72
62978;BME280;49073;42.352;23.808;2022-07-23T11:11:26;94878.50;;;34.05;20.57
62978;BME280;49073;42.352;23.808;2022-07-23T11:15:14;94871.91;;;34.19;19.64
62978;BME280;49073;42.352;23.808;2022-07-23T11:18:14;94874.66;;;34.31;20.32
62978;BME280;49073;42.352;23.808;2022-07-23T11:24:23;94863.63;;;34.25;20.29
62978;BME280;49073;42.352;23.808;2022-07-23T11:27:39;94861.53;;;34.43;20.73
62978;BME280;49073;42.352;23.808;2022-07-23T11:30:45;94865.28;;;34.45;20.27
62978;BME280;49073;42.352;23.808;2022-07-23T11:37:47;94868.09;;;34.51;20.70
62978;BME280;49073;42.352;23.808;2022-07-23T11:40:53;94859.78;;;34.57;18.67
62978;BME280;49073;42.352;23.808;2022-07-23T11:43:54;94853.22;;;34.54;20.09
62978;BME280;49073;42.352;23.808;2022-07-23T11:47:00;94853.22;;;34.54;20.45
62978;BME280;49073;42.352;23.808;2022-07-23T11:50:05;94850.94;;;34.64;19.35
62978;BME280;49073;42.352;23.808;2022-07-23T11:53:06;94845.09;;;34.73;18.58
62978;BME280;49073;42.352;23.808;2022-07-23T11:56:09;94828.72;;;34.75;18.69
62978;BME280;49073;42.352;23.808;2022-07-23T11:59:11;94854.03;;;34.96;18.98
62978;BME280;49073;42.352;23.808;2022-07-23T12:02:11;94839.97;;;34.89;18.14
62978;BME280;49073;42.352;23.808;2022-07-23T12:05:21;94835.38;;;35.08;18.61
62978;BME280;49073;42.352;23.808;2022-07-23T12:08:22;94833.81;;;35.19;17.88
62978;BME280;49073;42.352;23.808;2022-07-23T12:11:22;94830.47;;;35.26;17.58
62978;BME280;49073;42.352;23.808;2022-07-23T12:14:23;94827.41;;;35.30;17.35
62978;BME280;49073;42.352;23.808;2022-07-23T12:17:32;94827.81;;;35.09;18.15
62978;BME280;49073;42.352;23.808;2022-07-23T12:20:36;94821.78;;;35.05;16.85
62978;BME280;49073;42.352;23.808;2022-07-23T12:23:37;94813.50;;;35.05;17.03
62978;BME280;49073;42.352;23.808;2022-07-23T12:26:38;94801.06;;;35.17;16.76
62978;BME280;49073;42.352;23.808;2022-07-23T12:29:38;94823.19;;;35.23;17.40
62978;BME280;49073;42.352;23.808;2022-07-23T12:32:43;94804.09;;;35.50;16.12
62978;BME280;49073;42.352;23.808;2022-07-23T12:35:46;94799.81;;;35.49;17.84
62978;BME280;49073;42.352;23.808;2022-07-23T12:38:48;94801.88;;;35.43;15.98
62978;BME280;49073;42.352;23.808;2022-07-23T12:41:53;94800.34;;;35.47;17.00
62978;BME280;49073;42.352;23.808;2022-07-23T12:45:10;94785.94;;;35.55;16.44
62978;BME280;49073;42.352;23.808;2022-07-23T12:48:38;94803.47;;;35.68;16.40
62978;BME280;49073;42.352;23.808;2022-07-23T12:51:39;94793.69;;;35.62;16.51
62978;BME280;49073;42.352;23.808;2022-07-23T12:54:39;94779.81;;;35.62;16.40
62978;BME280;49073;42.352;23.808;2022-07-23T12:57:46;94780.00;;;35.70;15.71
62978;BME280;49073;42.352;23.808;2022-07-23T13:01:03;94785.72;;;35.52;15.38
62978;BME280;49073;42.352;23.808;2022-07-23T13:04:20;94782.00;;;35.08;16.32
62978;BME280;49073;42.352;23.808;2022-07-23T13:07:21;94776.44;;;34.66;15.95
62978;BME280;49073;42.352;23.808;2022-07-23T13:10:22;94782.53;;;34.53;16.76
62978;BME280;49073;42.352;23.808;2022-07-23T13:13:25;94788.16;;;34.30;16.85
62978;BME280;49073;42.352;23.808;2022-07-23T13:16:28;94796.94;;;34.34;16.86
62978;BME280;49073;42.352;23.808;2022-07-23T13:19:29;94777.47;;;34.57;17.25
62978;BME280;49073;42.352;23.808;2022-07-23T13:22:30;94787.66;;;34.85;17.35
62978;BME280;49073;42.352;23.808;2022-07-23T13:25:30;94783.28;;;35.01;16.66
62978;BME280;49073;42.352;23.808;2022-07-23T13:28:31;94777.97;;;35.03;18.24
62978;BME280;49073;42.352;23.808;2022-07-23T13:31:32;94775.91;;;35.15;17.34
62978;BME280;49073;42.352;23.808;2022-07-23T13:34:33;94776.72;;;35.04;15.93
62978;BME280;49073;42.352;23.808;2022-07-23T13:37:33;94771.69;;;35.08;16.96
62978;BME280;49073;42.352;23.808;2022-07-23T13:40:40;94778.22;;;35.05;17.41
62978;BME280;49073;42.352;23.808;2022-07-23T13:43:42;94766.56;;;35.18;15.52
62978;BME280;49073;42.352;23.808;2022-07-23T13:46:42;94778.81;;;35.29;16.21
62978;BME280;49073;42.352;23.808;2022-07-23T13:49:43;94771.84;;;35.16;16.52
62978;BME280;49073;42.352;23.808;2022-07-23T13:52:44;94772.88;;;34.77;17.08
62978;BME280;49073;42.352;23.808;2022-07-23T13:55:46;94768.91;;;34.61;17.71
62978;BME280;49073;42.352;23.808;2022-07-23T13:58:47;94774.06;;;34.81;17.30
62978;BME280;49073;42.352;23.808;2022-07-23T14:01:47;94765.94;;;34.95;17.11
62978;BME280;49073;42.352;23.808;2022-07-23T14:04:52;94761.53;;;35.17;17.48
62978;BME280;49073;42.352;23.808;2022-07-23T14:07:52;94764.69;;;35.32;16.68
62978;BME280;49073;42.352;23.808;2022-07-23T14:10:53;94766.22;;;35.28;16.13
62978;BME280;49073;42.352;23.808;2022-07-23T14:13:54;94753.16;;;35.22;15.85
62978;BME280;49073;42.352;23.808;2022-07-23T14:16:55;94754.25;;;35.14;15.87
62978;BME280;49073;42.352;23.808;2022-07-23T14:19:56;94764.69;;;35.32;16.59
62978;BME280;49073;42.352;23.808;2022-07-23T14:22:56;94757.09;;;35.33;16.29
62978;BME280;49073;42.352;23.808;2022-07-23T14:26:01;94757.59;;;35.37;16.30
62978;BME280;49073;42.352;23.808;2022-07-23T14:29:01;94747.53;;;35.34;16.65
62978;BME280;49073;42.352;23.808;2022-07-23T14:32:02;94745.38;;;35.21;17.81
62978;BME280;49073;42.352;23.808;2022-07-23T14:35:04;94747.59;;;35.28;18.31
62978;BME280;49073;42.352;23.808;2022-07-23T14:38:05;94750.72;;;35.13;16.57
62978;BME280;49073;42.352;23.808;2022-07-23T14:41:06;94749.94;;;34.82;16.79
62978;BME280;49073;42.352;23.808;2022-07-23T14:44:08;94750.13;;;34.48;19.60
62978;BME280;49073;42.352;23.808;2022-07-23T14:47:08;94748.69;;;34.24;18.10
62978;BME280;49073;42.352;23.808;2022-07-23T14:50:09;94756.75;;;34.16;18.71
62978;BME280;49073;42.352;23.808;2022-07-23T14:53:10;94748.41;;;34.28;19.09
62978;BME280;49073;42.352;23.808;2022-07-23T14:56:11;94745.56;;;34.45;18.26
62978;BME280;49073;42.352;23.808;2022-07-23T14:59:13;94740.00;;;34.56;18.26
62978;BME280;49073;42.352;23.808;2022-07-23T15:02:14;94730.44;;;34.57;18.68
62978;BME280;49073;42.352;23.808;2022-07-23T15:05:14;94736.97;;;34.60;19.43
62978;BME280;49073;42.352;23.808;2022-07-23T15:08:15;94731.69;;;34.62;18.14
62978;BME280;49073;42.352;23.808;2022-07-23T15:11:15;94726.34;;;34.70;19.78
62978;BME280;49073;42.352;23.808;2022-07-23T15:14:16;94731.13;;;34.69;18.60
62978;BME280;49073;42.352;23.808;2022-07-23T15:17:16;94728.31;;;34.75;19.08
62978;BME280;49073;42.352;23.808;2022-07-23T15:20:17;94719.06;;;34.66;19.00
62978;BME280;49073;42.352;23.808;2022-07-23T15:23:17;94716.53;;;34.69;18.65
62978;BME280;49073;42.352;23.808;2022-07-23T15:26:18;94715.50;;;34.72;18.69
62978;BME280;49073;42.352;23.808;2022-07-23T15:29:18;94714.22;;;34.73;19.80
62978;BME280;49073;42.352;23.808;2022-07-23T15:32:19;94713.72;;;34.74;20.15
62978;BME280;49073;42.352;23.808;2022-07-23T15:35:19;94707.97;;;34.66;20.63
62978;BME280;49073;42.352;23.808;2022-07-23T15:38:20;94705.22;;;34.66;20.22
62978;BME280;49073;42.352;23.808;2022-07-23T15:41:21;94709.31;;;34.60;20.43
62978;BME280;49073;42.352;23.808;2022-07-23T15:44:21;94711.31;;;34.59;20.96
62978;BME280;49073;42.352;23.808;2022-07-23T15:47:22;94702.25;;;34.59;21.09
62978;BME280;49073;42.352;23.808;2022-07-23T15:50:23;94700.00;;;34.57;20.70
62978;BME280;49073;42.352;23.808;2022-07-23T15:53:23;94707.88;;;34.42;21.13
62978;BME280;49073;42.352;23.808;2022-07-23T15:56:24;94698.31;;;34.43;20.27
62978;BME280;49073;42.352;23.808;2022-07-23T15:59:24;94713.47;;;34.30;21.27
62978;BME280;49073;42.352;23.808;2022-07-23T16:02:25;94706.97;;;34.22;22.54
62978;BME280;49073;42.352;23.808;2022-07-23T16:05:26;94709.75;;;34.16;22.14
62978;BME280;49073;42.352;23.808;2022-07-23T16:08:26;94707.03;;;34.05;22.52
62978;BME280;49073;42.352;23.808;2022-07-23T16:11:27;94703.81;;;33.95;22.03